createdAt,value
2017-09-23T00:00:22.721Z,18.87
2017-09-23T00:02:50.319Z,20.80
2017-09-23T00:05:17.954Z,16.80
2017-09-23T00:07:46.301Z,15.40
2017-09-23T00:10:13.881Z,16.10
2017-09-23T00:12:41.477Z,23.70
2017-09-23T00:15:09.878Z,21.13
2017-09-23T00:17:37.475Z,22.00
2017-09-23T00:20:05.073Z,19.70
2017-09-23T00:22:33.418Z,20.70
2017-09-23T00:25:00.997Z,18.73
2017-09-23T00:27:28.675Z,17.23
2017-09-23T00:29:57.187Z,22.77
2017-09-23T00:32:24.791Z,20.13
2017-09-23T00:34:52.351Z,29.73
2017-09-23T00:37:19.941Z,30.60
2017-09-23T00:39:48.274Z,30.43
2017-09-23T00:42:15.821Z,26.90
2017-09-23T01:01:42.890Z,27.37
2017-09-23T01:04:10.454Z,25.67
2017-09-23T01:06:38.028Z,24.00
2017-09-23T01:09:05.588Z,24.40
2017-09-23T01:11:33.149Z,25.13
2017-09-23T01:14:00.846Z,27.90
2017-09-23T01:16:28.451Z,25.27
2017-09-23T01:18:56.003Z,27.90
2017-09-23T01:21:23.591Z,24.70
2017-09-23T01:23:51.193Z,25.20
2017-09-23T01:26:18.791Z,25.60
2017-09-23T01:28:46.359Z,25.17
2017-09-23T01:31:13.961Z,33.10
2017-09-23T01:33:41.556Z,29.50
2017-09-23T01:36:09.906Z,30.30
2017-09-23T01:38:37.523Z,30.80
2017-09-23T01:41:05.083Z,29.07
2017-09-23T01:43:32.682Z,32.40
2017-09-23T01:46:00.258Z,32.47
2017-09-23T01:48:27.866Z,29.57
2017-09-23T01:50:55.703Z,34.40
2017-09-23T01:53:23.269Z,32.73
2017-09-23T01:55:51.625Z,31.80
2017-09-23T01:58:19.203Z,31.03
2017-09-23T02:00:46.787Z,33.40
2017-09-23T02:03:15.176Z,38.00
2017-09-23T02:05:42.744Z,38.43
2017-09-23T02:08:10.335Z,38.37
2017-09-23T02:10:37.913Z,38.37
2017-09-23T02:13:05.498Z,38.93
2017-09-23T02:15:33.890Z,40.00
2017-09-23T02:18:02.233Z,39.60
2017-09-23T02:20:29.793Z,37.47
2017-09-23T02:22:57.346Z,36.70
2017-09-23T02:25:24.920Z,37.83
2017-09-23T02:27:52.506Z,39.53
2017-09-23T02:30:20.850Z,38.90
2017-09-23T02:32:48.462Z,41.47
2017-09-23T02:35:16.798Z,40.10
2017-09-23T02:37:44.367Z,43.20
2017-09-23T02:40:12.710Z,40.97
2017-09-23T02:42:40.279Z,41.67
2017-09-23T02:45:07.849Z,41.90
2017-09-23T02:47:36.193Z,40.60
2017-09-23T02:50:03.779Z,42.23
2017-09-23T02:52:31.338Z,41.00
2017-09-23T02:54:58.926Z,43.30
2017-09-23T02:57:27.273Z,40.50
2017-09-23T02:59:54.919Z,38.43
2017-09-23T03:02:22.514Z,40.70
2017-09-23T03:04:50.067Z,42.83
2017-09-23T03:07:18.566Z,42.83
2017-09-23T03:09:46.135Z,42.47
2017-09-23T03:12:14.467Z,42.07
2017-09-23T03:26:23.799Z,43.20
2017-09-23T03:28:51.363Z,47.20
2017-09-23T03:31:18.977Z,45.73
2017-09-23T03:33:46.570Z,45.30
2017-09-23T03:36:14.275Z,45.27
2017-09-23T03:38:41.832Z,45.37
2017-09-23T03:41:09.431Z,46.67
2017-09-23T03:43:36.990Z,47.80
2017-09-23T03:46:04.575Z,47.43
2017-09-23T03:48:32.151Z,48.43
2017-09-23T03:51:01.024Z,47.50
2017-09-23T03:53:28.595Z,44.60
2017-09-23T03:55:56.193Z,44.80
2017-09-23T03:58:23.779Z,48.37
2017-09-23T04:00:52.121Z,44.87
2017-09-23T04:03:19.742Z,49.50
2017-09-23T04:05:47.311Z,44.33
2017-09-23T04:08:14.889Z,45.23
2017-09-23T04:10:42.474Z,47.20
2017-09-23T04:13:38.054Z,45.33
2017-09-23T04:16:05.607Z,45.10
2017-09-23T04:18:33.193Z,41.20
2017-09-23T04:21:00.774Z,46.50
2017-09-23T04:23:29.107Z,51.00
2017-09-23T04:25:56.814Z,46.37
2017-09-23T04:28:24.382Z,47.70
2017-09-23T04:30:51.951Z,47.27
2017-09-23T04:33:19.551Z,51.40
2017-09-23T04:35:47.132Z,48.87
2017-09-23T04:38:14.738Z,45.63
2017-09-23T04:40:43.132Z,47.40
2017-09-23T04:43:11.511Z,48.57
2017-09-23T04:45:39.847Z,48.70
2017-09-23T04:48:07.414Z,50.90
2017-09-23T04:50:35.005Z,58.07
2017-09-23T04:53:02.572Z,60.83
2017-09-23T04:55:30.909Z,60.07
2017-09-23T04:57:58.546Z,59.23
2017-09-23T05:00:26.119Z,55.13
2017-09-23T05:02:53.687Z,53.40
2017-09-23T05:05:21.404Z,54.07
2017-09-23T05:07:49.757Z,47.50
2017-09-23T05:10:17.318Z,51.10
2017-09-23T05:12:44.901Z,50.00
2017-09-23T05:21:19.821Z,47.40
2017-09-23T05:23:47.410Z,43.70
2017-09-23T05:26:14.986Z,43.97
2017-09-23T05:28:42.569Z,47.17
2017-09-23T05:31:10.139Z,44.60
2017-09-23T05:33:38.514Z,45.73
2017-09-23T05:36:06.864Z,46.60
2017-09-23T05:38:34.521Z,44.43
2017-09-23T05:41:02.127Z,47.70
2017-09-23T05:43:30.476Z,45.50
2017-09-23T05:45:58.042Z,45.77
2017-09-23T05:48:25.754Z,46.00
2017-09-23T05:50:53.817Z,45.07
2017-09-23T05:53:21.456Z,45.90
2017-09-23T05:55:49.058Z,44.70
2017-09-23T05:58:16.656Z,45.50
2017-09-23T06:00:44.991Z,43.43
2017-09-23T06:03:12.738Z,43.10
2017-09-23T06:05:41.954Z,43.10
2017-09-23T06:08:09.547Z,45.97
2017-09-23T06:10:37.141Z,44.00
2017-09-23T06:13:04.722Z,44.57
2017-09-23T06:15:33.113Z,43.40
2017-09-23T06:18:11.075Z,42.83
2017-09-23T06:20:38.650Z,43.30
2017-09-23T06:23:06.210Z,41.97
2017-09-23T06:25:33.783Z,44.73
2017-09-23T06:28:01.381Z,45.97
2017-09-23T06:30:29.715Z,44.27
2017-09-23T06:32:57.293Z,42.27
2017-09-23T06:35:24.882Z,40.10
2017-09-23T06:37:53.242Z,39.87
2017-09-23T06:40:20.838Z,39.13
2017-09-23T06:42:49.181Z,39.70
2017-09-23T06:45:16.783Z,37.60
2017-09-23T06:47:44.572Z,38.13
2017-09-23T06:50:12.181Z,37.60
2017-09-23T06:52:39.771Z,38.33
2017-09-23T06:55:08.125Z,38.03
2017-09-23T06:57:35.685Z,40.00
2017-09-23T07:00:03.273Z,38.33
2017-09-23T07:02:31.590Z,37.77
2017-09-23T07:04:59.162Z,39.30
2017-09-23T07:07:26.746Z,39.60
2017-09-23T07:09:54.350Z,33.40
2017-09-23T07:12:21.951Z,33.33
2017-09-23T07:14:49.517Z,33.97
2017-09-23T07:17:17.122Z,32.97
2017-09-23T07:19:44.735Z,35.30
2017-09-23T07:22:13.092Z,34.40
2017-09-23T07:24:40.721Z,31.90
2017-09-23T07:27:08.290Z,32.13
2017-09-23T07:29:35.906Z,34.50
2017-09-23T07:32:04.265Z,33.77
2017-09-23T07:34:31.838Z,33.37
2017-09-23T07:37:00.185Z,33.13
2017-09-23T07:39:27.754Z,34.60
2017-09-23T07:41:55.331Z,34.60
2017-09-23T07:44:22.884Z,33.53
2017-09-23T07:46:50.488Z,31.07
2017-09-23T07:49:18.138Z,32.10
2017-09-23T07:51:45.704Z,33.40
2017-09-23T07:54:13.290Z,33.63
2017-09-23T07:56:40.879Z,34.60
2017-09-23T07:59:08.470Z,33.17
2017-09-23T08:01:36.831Z,31.07
2017-09-23T08:04:04.423Z,36.17
2017-09-23T08:06:32.825Z,31.90
2017-09-23T08:09:00.406Z,32.90
2017-09-23T08:11:28.020Z,31.77
2017-09-23T08:13:56.374Z,32.40
2017-09-23T08:16:23.969Z,31.33
2017-09-23T08:18:51.563Z,33.03
2017-09-23T08:21:19.231Z,29.67
2017-09-23T08:23:46.822Z,33.30
2017-09-23T08:26:14.592Z,33.23
2017-09-23T08:28:42.163Z,32.23
2017-09-23T08:31:09.745Z,32.27
2017-09-23T08:33:38.107Z,30.33
2017-09-23T08:36:05.693Z,29.73
2017-09-23T08:38:33.288Z,31.43
2017-09-23T08:41:00.881Z,29.67
2017-09-23T08:43:29.242Z,30.00
2017-09-23T08:45:56.846Z,29.83
2017-09-23T08:48:25.318Z,30.93
2017-09-23T08:50:52.935Z,29.97
2017-09-23T08:53:20.530Z,31.27
2017-09-23T08:55:48.105Z,29.40
2017-09-23T08:58:16.476Z,32.10
2017-09-23T09:00:44.048Z,29.03
2017-09-23T09:03:11.650Z,28.07
2017-09-23T09:05:39.227Z,29.40
2017-09-23T09:08:06.842Z,30.10
2017-09-23T09:10:35.199Z,29.03
2017-09-23T09:13:12.831Z,32.30
2017-09-23T09:15:41.189Z,31.47
2017-09-23T09:18:09.528Z,33.20
2017-09-23T09:20:37.238Z,31.43
2017-09-23T09:23:04.846Z,34.60
2017-09-23T09:25:32.414Z,34.73
2017-09-23T09:28:00.010Z,34.60
2017-09-23T09:30:27.598Z,32.90
2017-09-23T09:32:56.262Z,30.77
2017-09-23T09:35:23.833Z,31.50
2017-09-23T09:37:51.411Z,30.00
2017-09-23T09:40:19.782Z,27.70
2017-09-23T09:42:47.381Z,28.77
2017-09-23T09:45:14.957Z,29.80
2017-09-23T09:47:42.572Z,31.83
2017-09-23T09:50:10.216Z,34.60
2017-09-23T09:52:37.800Z,33.70
2017-09-23T09:55:06.154Z,33.70
2017-09-23T09:57:33.723Z,33.70
2017-09-23T10:00:01.374Z,33.60
2017-09-23T10:02:28.952Z,30.30
2017-09-23T10:04:57.376Z,33.27
2017-09-23T10:07:24.995Z,30.87
2017-09-23T10:09:52.657Z,31.20
2017-09-23T10:12:20.255Z,31.73
2017-09-23T10:14:48.714Z,32.50
2017-09-23T10:17:16.404Z,31.17
2017-09-23T10:19:44.029Z,29.50
2017-09-23T10:22:11.681Z,31.37
2017-09-23T10:24:39.368Z,30.67
2017-09-23T10:27:06.967Z,30.53
2017-09-23T10:29:35.312Z,31.30
2017-09-23T10:32:04.251Z,29.97
2017-09-23T10:34:31.834Z,28.50
2017-09-23T10:37:02.003Z,31.60
2017-09-23T10:39:31.867Z,32.27
2017-09-23T10:42:00.106Z,32.03
2017-09-23T10:44:28.459Z,31.50
2017-09-23T10:46:56.034Z,30.40
2017-09-23T10:49:23.625Z,31.47
2017-09-23T10:51:51.991Z,32.17
2017-09-23T10:54:20.339Z,30.47
2017-09-23T10:56:47.915Z,31.27
2017-09-23T10:59:15.649Z,28.97
2017-09-23T11:01:43.273Z,29.80
2017-09-23T11:04:10.883Z,29.83
2017-09-23T11:06:38.455Z,29.67
2017-09-23T11:09:06.030Z,29.60
2017-09-23T11:11:33.702Z,28.80
2017-09-23T11:14:01.289Z,28.30
2017-09-23T11:16:29.959Z,30.73
2017-09-23T11:18:57.732Z,29.53
2017-09-23T11:21:26.189Z,31.97
2017-09-23T11:23:53.756Z,30.40
2017-09-23T11:26:21.346Z,32.00
2017-09-23T11:28:49.123Z,32.40
2017-09-23T11:31:17.552Z,32.73
2017-09-23T11:33:45.255Z,31.33
2017-09-23T11:36:13.606Z,30.00
2017-09-23T11:38:42.010Z,29.20
2017-09-23T11:41:10.358Z,31.80
2017-09-23T11:43:37.926Z,30.93
2017-09-23T11:46:05.571Z,31.97
2017-09-23T11:48:33.485Z,33.07
2017-09-23T11:51:01.067Z,31.93
2017-09-23T11:53:29.427Z,32.40
2017-09-23T11:55:57.862Z,31.23
2017-09-23T11:58:25.541Z,30.87
2017-09-23T12:00:53.118Z,30.20
2017-09-23T12:03:20.760Z,31.30
2017-09-23T12:05:48.339Z,31.30
2017-09-23T12:08:15.912Z,27.17
2017-09-23T12:10:43.498Z,28.73
2017-09-23T12:13:11.960Z,29.40
2017-09-23T12:15:39.538Z,28.00
2017-09-23T12:18:07.106Z,30.87
2017-09-23T12:20:35.467Z,28.50
2017-09-23T12:23:03.062Z,26.03
2017-09-23T12:25:31.391Z,27.10
2017-09-23T12:27:58.995Z,27.40
2017-09-23T12:30:27.342Z,27.30
2017-09-23T12:32:54.923Z,25.73
2017-09-23T12:35:22.517Z,26.37
2017-09-23T12:37:50.842Z,23.93
2017-09-23T12:40:18.436Z,25.40
2017-09-23T12:42:46.033Z,24.67
2017-09-23T12:45:13.635Z,26.00
2017-09-23T12:47:41.210Z,25.63
2017-09-23T12:50:08.799Z,28.93
2017-09-23T12:52:37.159Z,25.10
2017-09-23T12:55:04.774Z,26.57
2017-09-23T12:57:32.354Z,26.93
2017-09-23T12:59:59.917Z,26.30
2017-09-23T13:02:27.497Z,25.70
2017-09-23T13:04:55.101Z,27.03
2017-09-23T13:07:23.610Z,26.70
2017-09-23T13:09:51.198Z,26.53
2017-09-23T13:12:18.798Z,26.93
2017-09-23T13:14:46.380Z,26.60
2017-09-23T13:17:14.757Z,23.97
2017-09-23T13:22:34.979Z,23.03
2017-09-23T13:25:02.560Z,23.17
2017-09-23T13:27:30.162Z,21.33
2017-09-23T13:29:57.786Z,21.93
2017-09-23T13:32:25.398Z,22.50
2017-09-23T13:34:52.990Z,24.57
2017-09-23T13:37:21.334Z,22.87
2017-09-23T13:39:48.928Z,23.40
2017-09-23T13:42:17.392Z,23.47
2017-09-23T13:44:44.994Z,22.97
2017-09-23T13:47:12.563Z,24.40
2017-09-23T13:49:40.127Z,25.63
2017-09-23T13:52:07.717Z,24.47
2017-09-23T13:54:35.293Z,27.10
2017-09-23T13:57:02.971Z,27.30
2017-09-23T13:59:30.533Z,29.27
2017-09-23T14:01:58.101Z,27.20
2017-09-23T14:04:25.697Z,26.70
2017-09-23T14:06:53.309Z,28.07
2017-09-23T14:09:20.889Z,27.60
2017-09-23T14:11:48.495Z,26.50
2017-09-23T14:14:16.139Z,24.07
2017-09-23T14:16:44.490Z,25.07
2017-09-23T14:19:12.056Z,24.17
2017-09-23T14:21:39.714Z,26.07
2017-09-23T14:24:08.077Z,25.00
2017-09-23T14:26:35.635Z,25.10
2017-09-23T14:29:03.224Z,25.47
2017-09-23T14:31:30.966Z,24.93
2017-09-23T14:33:58.559Z,25.77
2017-09-23T14:36:26.163Z,26.67
2017-09-23T14:38:53.756Z,25.17
2017-09-23T14:41:21.334Z,24.43
2017-09-23T14:43:49.694Z,26.53
2017-09-23T14:46:17.299Z,23.80
2017-09-23T14:48:45.644Z,23.33
2017-09-23T14:51:13.991Z,23.30
2017-09-23T14:53:41.589Z,23.00
2017-09-23T14:56:09.216Z,23.07
2017-09-23T14:58:36.801Z,22.37
2017-09-23T15:01:04.391Z,20.33
2017-09-23T15:03:31.972Z,24.27
2017-09-23T15:05:59.581Z,22.10
2017-09-23T15:08:27.186Z,23.43
2017-09-23T15:10:54.914Z,21.90
2017-09-23T15:13:22.505Z,26.40
2017-09-23T15:15:50.078Z,24.30
2017-09-23T15:18:17.651Z,27.20
2017-09-23T15:20:45.268Z,23.80
2017-09-23T15:23:12.843Z,25.30
2017-09-23T15:25:40.429Z,23.20
2017-09-23T15:28:08.032Z,22.30
2017-09-23T15:30:35.630Z,22.77
2017-09-23T15:33:03.216Z,24.70
2017-09-23T15:35:31.047Z,23.23
2017-09-23T15:37:58.785Z,24.07
2017-09-23T15:40:26.520Z,26.33
2017-09-23T15:42:54.945Z,57.03
2017-09-23T15:45:22.539Z,30.93
2017-09-23T15:47:50.159Z,28.13
2017-09-23T15:50:17.754Z,27.23
2017-09-23T15:52:45.342Z,23.47
2017-09-23T15:55:12.981Z,24.03
2017-09-23T15:57:40.578Z,25.60
2017-09-23T16:00:08.150Z,21.60
2017-09-23T16:02:35.754Z,23.63
2017-09-23T16:05:03.411Z,25.77
2017-09-23T16:07:31.017Z,22.10
2017-09-23T16:09:58.577Z,23.77
2017-09-23T16:12:26.198Z,23.50
2017-09-23T16:14:53.848Z,22.30
2017-09-23T16:17:22.215Z,22.30
2017-09-23T16:19:50.805Z,20.47
2017-09-23T16:22:18.555Z,20.80
2017-09-23T16:24:46.120Z,22.10
2017-09-23T16:27:13.714Z,20.23
2017-09-23T16:29:41.315Z,20.40
2017-09-23T16:32:08.900Z,20.73
2017-09-23T16:34:36.479Z,20.23
2017-09-23T16:37:04.946Z,21.33
2017-09-23T16:39:32.547Z,18.77
2017-09-23T16:42:00.143Z,20.97
2017-09-23T16:44:27.748Z,23.33
2017-09-23T16:46:56.083Z,24.73
2017-09-23T16:49:23.684Z,25.67
2017-09-23T16:51:52.050Z,25.27
2017-09-23T16:54:19.643Z,23.50
2017-09-23T16:56:48.002Z,24.73
2017-09-23T16:59:15.600Z,24.70
2017-09-23T17:01:43.238Z,27.67
2017-09-23T17:04:11.600Z,28.10
2017-09-23T17:06:39.199Z,24.67
2017-09-23T17:09:07.572Z,27.07
2017-09-23T17:11:35.223Z,29.10
2017-09-23T17:14:03.562Z,27.80
2017-09-23T17:16:31.140Z,26.80
2017-09-23T17:18:58.730Z,29.53
2017-09-23T17:21:27.070Z,28.50
2017-09-23T17:23:54.661Z,29.30
2017-09-23T17:26:22.412Z,33.87
2017-09-23T17:28:49.999Z,28.43
2017-09-23T17:31:18.388Z,31.60
2017-09-23T17:33:46.750Z,30.20
2017-09-23T17:36:14.360Z,33.00
2017-09-23T17:38:41.924Z,36.70
2017-09-23T17:41:09.488Z,36.50
2017-09-23T17:43:37.670Z,35.17
2017-09-23T17:46:05.397Z,36.10
2017-09-23T17:48:33.793Z,74.30
2017-09-23T17:51:01.446Z,116.20
2017-09-23T17:53:29.813Z,79.47
2017-09-23T17:55:58.188Z,52.00
2017-09-23T17:58:25.811Z,53.90
2017-09-23T18:00:53.399Z,43.50
2017-09-23T18:03:20.983Z,39.97
2017-09-23T18:05:49.621Z,40.97
2017-09-23T18:08:17.207Z,39.27
2017-09-23T18:10:44.859Z,36.57
2017-09-23T18:13:12.437Z,35.90
2017-09-23T18:15:40.031Z,41.43
2017-09-23T18:18:08.400Z,36.53
2017-09-23T18:20:36.738Z,40.37
2017-09-23T18:23:04.307Z,37.70
2017-09-23T18:25:31.914Z,42.10
2017-09-23T18:27:59.504Z,41.97
2017-09-23T18:30:27.075Z,39.10
2017-09-23T18:32:54.889Z,38.07
2017-09-23T18:35:23.251Z,41.63
2017-09-23T18:37:50.848Z,44.57
2017-09-23T18:40:19.271Z,40.80
2017-09-23T18:42:46.871Z,42.87
2017-09-23T18:45:14.456Z,42.40
2017-09-23T18:47:42.059Z,41.10
2017-09-23T18:50:09.862Z,41.77
2017-09-23T18:52:38.210Z,39.20
2017-09-23T18:55:05.800Z,37.27
2017-09-23T18:57:33.425Z,42.53
2017-09-23T19:00:01.123Z,38.00
2017-09-23T19:02:28.715Z,39.10
2017-09-23T19:04:56.305Z,40.53
2017-09-23T19:07:23.878Z,40.00
2017-09-23T19:09:52.260Z,41.63
2017-09-23T19:12:19.867Z,41.53
2017-09-23T19:14:48.220Z,41.27
2017-09-23T19:17:16.584Z,39.77
2017-09-23T19:19:44.184Z,38.80
2017-09-23T19:22:11.821Z,40.47
2017-09-23T19:24:39.418Z,43.30
2017-09-23T19:27:07.772Z,41.37
2017-09-23T19:29:35.392Z,39.57
2017-09-23T19:32:02.995Z,32.90
2017-09-23T19:34:30.601Z,38.43
2017-09-23T19:36:58.209Z,35.20
2017-09-23T19:39:25.811Z,38.73
2017-09-23T19:41:54.182Z,39.63
2017-09-23T19:44:22.608Z,41.60
2017-09-23T19:46:50.179Z,39.23
2017-09-23T19:49:17.849Z,37.83
2017-09-23T19:51:45.592Z,37.20
2017-09-23T19:54:13.296Z,35.50
2017-09-23T19:56:40.868Z,35.60
2017-09-23T19:59:08.475Z,38.30
2017-09-23T20:01:36.071Z,38.47
2017-09-23T20:04:03.750Z,38.00
2017-09-23T20:06:32.114Z,35.97
2017-09-23T20:08:59.692Z,39.60
2017-09-23T20:11:27.257Z,39.00
2017-09-23T20:13:55.234Z,36.97
2017-09-23T20:16:22.920Z,38.97
2017-09-23T20:18:50.609Z,35.75
2017-09-23T20:21:18.226Z,42.60
2017-09-23T20:23:46.591Z,36.50
2017-09-23T20:26:14.201Z,41.55
2017-09-23T20:28:41.788Z,47.40
2017-09-23T20:31:09.380Z,43.83
2017-09-23T20:33:36.988Z,43.00
2017-09-23T20:36:04.617Z,44.13
2017-09-23T20:38:32.189Z,44.47
2017-09-23T20:41:00.586Z,41.72
2017-09-23T20:43:28.172Z,41.42
2017-09-23T20:45:55.789Z,45.50
2017-09-23T20:48:23.412Z,48.93
2017-09-23T20:50:50.992Z,46.17
2017-09-23T20:53:18.609Z,42.53
2017-09-23T20:55:47.055Z,46.92
2017-09-23T20:58:14.663Z,43.50
2017-09-23T21:00:42.245Z,45.28
2017-09-23T21:03:09.838Z,40.03
2017-09-23T21:05:38.401Z,45.50
2017-09-23T21:08:06.007Z,42.57
2017-09-23T21:10:33.577Z,48.35
2017-09-23T21:13:01.172Z,45.72
2017-09-23T21:15:28.760Z,44.33
2017-09-23T21:17:56.353Z,41.63
2017-09-23T21:20:24.004Z,38.27
2017-09-23T21:22:52.338Z,41.40
2017-09-23T21:25:20.723Z,45.55
2017-09-23T21:27:48.321Z,44.93
2017-09-23T21:30:15.907Z,47.20
2017-09-23T21:32:43.521Z,42.30
2017-09-23T21:35:11.082Z,39.40
2017-09-23T21:37:38.691Z,48.25
2017-09-23T21:40:06.278Z,44.80
2017-09-23T21:42:33.902Z,46.47
2017-09-23T21:45:01.484Z,41.90
2017-09-23T21:47:29.085Z,41.05
2017-09-23T21:49:56.699Z,43.10
2017-09-23T21:52:24.297Z,45.47
2017-09-23T21:54:51.881Z,47.97
2017-09-23T21:57:19.461Z,43.72
2017-09-23T21:59:47.082Z,46.83
2017-09-23T22:02:14.667Z,48.83
2017-09-23T22:04:42.253Z,51.42
2017-09-23T22:07:10.624Z,47.92
2017-09-23T22:09:38.240Z,53.67
2017-09-23T22:12:05.835Z,46.37
2017-09-23T22:14:33.426Z,49.05
2017-09-23T22:17:01.878Z,48.67
2017-09-23T22:19:29.467Z,46.60
2017-09-23T22:21:57.906Z,49.15
2017-09-23T22:24:25.496Z,49.47
2017-09-23T22:26:53.100Z,45.00
2017-09-23T22:29:20.686Z,46.40
2017-09-23T22:31:48.392Z,47.88
2017-09-23T22:34:16.056Z,45.15
2017-09-23T22:36:43.620Z,46.58
2017-09-23T22:39:12.034Z,46.03
2017-09-23T22:41:40.683Z,49.53
2017-09-23T22:44:08.307Z,45.72
2017-09-23T22:46:35.895Z,47.45
2017-09-23T22:49:04.243Z,45.65
2017-09-23T22:51:31.835Z,50.45
2017-09-23T22:53:59.424Z,45.53
2017-09-23T22:56:27.006Z,45.72
2017-09-23T22:58:54.608Z,49.90
2017-09-23T23:01:22.665Z,53.20
2017-09-23T23:03:50.236Z,46.67
2017-09-23T23:06:17.856Z,46.10
2017-09-23T23:08:45.442Z,48.53
2017-09-23T23:11:13.017Z,46.20
2017-09-23T23:13:40.630Z,42.67
2017-09-23T23:16:08.193Z,43.95
2017-09-23T23:18:35.825Z,42.17
2017-09-23T23:21:03.428Z,44.53
2017-09-23T23:23:30.984Z,44.05
2017-09-23T23:25:58.571Z,44.20
2017-09-23T23:28:26.130Z,44.47
2017-09-23T23:30:53.729Z,41.67
